createdAt,value
2023-04-18T00:00:04.174Z,22.60
2023-04-18T00:01:04.184Z,22.50
2023-04-18T00:02:04.220Z,23.30
2023-04-18T00:03:04.788Z,24.80
2023-04-18T00:04:05.340Z,22.40
2023-04-18T00:05:04.205Z,23.70
2023-04-18T00:06:04.159Z,19.70
2023-04-18T00:07:04.125Z,23.40
2023-04-18T00:08:04.102Z,24.40
2023-04-18T00:09:04.197Z,25.40
2023-04-18T00:10:04.110Z,23.90
2023-04-18T00:11:04.045Z,27.10
2023-04-18T00:12:04.058Z,25.10
2023-04-18T00:13:04.065Z,26.40
2023-04-18T00:14:04.041Z,22.60
2023-04-18T00:15:04.062Z,23.30
2023-04-18T00:16:04.013Z,26.10
2023-04-18T00:17:04.059Z,23.40
2023-04-18T00:18:04.081Z,23.30
2023-04-18T00:19:03.997Z,23.30
2023-04-18T00:20:04.007Z,24.00
2023-04-18T00:21:03.974Z,23.40
2023-04-18T00:22:03.962Z,22.90
2023-04-18T00:23:03.961Z,20.80
2023-04-18T00:24:03.944Z,20.80
2023-04-18T00:25:03.964Z,21.00
2023-04-18T00:26:03.923Z,21.40
2023-04-18T00:27:03.958Z,21.10
2023-04-18T00:28:03.889Z,22.40
2023-04-18T00:29:03.895Z,20.90
2023-04-18T00:30:03.906Z,19.70
2023-04-18T00:31:03.996Z,22.50
2023-04-18T00:32:03.915Z,18.50
2023-04-18T00:33:03.875Z,20.10
2023-04-18T00:34:03.889Z,19.10
2023-04-18T00:35:03.835Z,19.60
2023-04-18T00:36:03.827Z,20.30
2023-04-18T00:37:03.856Z,21.50
2023-04-18T00:38:03.837Z,20.40
2023-04-18T00:39:03.848Z,18.40
2023-04-18T00:40:03.799Z,18.50
2023-04-18T00:41:03.793Z,17.70
2023-04-18T00:42:03.774Z,19.50
2023-04-18T00:43:03.782Z,17.50
2023-04-18T00:44:03.757Z,16.60
2023-04-18T00:45:03.743Z,17.70
2023-04-18T00:46:03.809Z,17.10
2023-04-18T00:47:03.748Z,16.10
2023-04-18T00:48:04.315Z,15.60
2023-04-18T00:49:03.717Z,15.50
2023-04-18T00:50:03.727Z,17.80
2023-04-18T00:51:03.702Z,13.90
2023-04-18T00:52:03.668Z,17.50
2023-04-18T00:53:03.665Z,16.20
2023-04-18T00:54:03.651Z,16.10
2023-04-18T00:55:03.640Z,14.20
2023-04-18T00:56:03.656Z,16.40
2023-04-18T00:57:03.618Z,16.30
2023-04-18T00:58:03.616Z,16.00
2023-04-18T00:59:03.643Z,15.70
2023-04-18T01:00:03.611Z,16.00
2023-04-18T01:01:03.611Z,15.20
2023-04-18T01:02:03.716Z,16.10
2023-04-18T01:03:03.709Z,14.20
2023-04-18T01:04:03.683Z,17.60
2023-04-18T01:05:03.559Z,15.10
2023-04-18T01:06:03.545Z,14.80
2023-04-18T01:07:03.537Z,15.00
2023-04-18T01:08:04.510Z,17.10
2023-04-18T01:09:03.515Z,16.50
2023-04-18T01:10:03.483Z,15.70
2023-04-18T01:11:03.470Z,19.70
2023-04-18T01:12:03.490Z,15.90
2023-04-18T01:13:03.519Z,16.30
2023-04-18T01:14:03.446Z,15.60
2023-04-18T01:15:03.457Z,15.30
2023-04-18T01:16:03.506Z,16.90
2023-04-18T01:17:03.411Z,16.10
2023-04-18T01:18:03.434Z,15.10
2023-04-18T01:19:03.431Z,17.40
2023-04-18T01:20:03.453Z,17.10
2023-04-18T01:21:03.431Z,14.20
2023-04-18T01:22:03.392Z,15.70
2023-04-18T01:23:03.385Z,16.30
2023-04-18T01:24:03.398Z,16.70
2023-04-18T01:25:03.369Z,14.90
2023-04-18T01:26:03.352Z,16.10
2023-04-18T01:27:03.397Z,16.30
2023-04-18T01:28:03.307Z,16.20
2023-04-18T01:29:03.305Z,15.10
2023-04-18T01:30:03.314Z,15.10
2023-04-18T01:31:03.337Z,14.30
2023-04-18T01:32:03.315Z,17.30
2023-04-18T01:33:03.330Z,16.70
2023-04-18T01:34:03.264Z,14.60
2023-04-18T01:35:03.254Z,15.40
2023-04-18T01:36:03.336Z,15.70
2023-04-18T01:37:03.289Z,15.70
2023-04-18T01:38:03.208Z,14.50
2023-04-18T01:39:03.236Z,15.00
2023-04-18T01:40:03.275Z,14.60
2023-04-18T01:41:03.239Z,14.00
2023-04-18T01:42:03.217Z,14.30
2023-04-18T01:43:03.181Z,14.70
2023-04-18T01:44:03.160Z,13.90
2023-04-18T01:45:03.145Z,14.20
2023-04-18T01:46:03.252Z,13.70
2023-04-18T01:47:03.177Z,14.50
2023-04-18T01:48:03.159Z,13.40
2023-04-18T01:49:03.116Z,13.70
2023-04-18T01:50:03.127Z,13.50
2023-04-18T01:51:03.128Z,13.40
2023-04-18T01:52:03.119Z,12.70
2023-04-18T01:53:03.095Z,13.10
2023-04-18T01:54:03.101Z,12.70
2023-04-18T01:55:03.115Z,12.40
2023-04-18T01:56:03.092Z,14.60
2023-04-18T01:57:03.081Z,14.40
2023-04-18T01:58:03.048Z,14.20
2023-04-18T01:59:03.037Z,13.00
2023-04-18T02:00:03.032Z,13.20
2023-04-18T02:01:04.045Z,13.70
2023-04-18T02:02:03.067Z,13.20
2023-04-18T02:03:03.134Z,14.20
2023-04-18T02:04:02.991Z,13.30
2023-04-18T02:05:02.987Z,13.40
2023-04-18T02:06:02.961Z,14.50
2023-04-18T02:07:02.972Z,12.60
2023-04-18T02:08:02.946Z,12.60
2023-04-18T02:09:02.946Z,13.30
2023-04-18T02:10:02.916Z,12.60
2023-04-18T02:11:02.938Z,13.30
2023-04-18T02:12:02.902Z,12.10
2023-04-18T02:13:02.903Z,12.00
2023-04-18T02:14:02.916Z,11.70
2023-04-18T02:15:02.842Z,11.50
2023-04-18T02:16:02.905Z,11.70
2023-04-18T02:17:02.868Z,10.80
2023-04-18T02:18:02.885Z,11.70
2023-04-18T02:19:02.813Z,11.60
2023-04-18T02:20:02.820Z,11.50
2023-04-18T02:21:02.804Z,13.20
2023-04-18T02:22:02.842Z,11.00
2023-04-18T02:23:02.791Z,11.50
2023-04-18T02:24:02.798Z,10.90
2023-04-18T02:25:02.772Z,11.20
2023-04-18T02:26:02.783Z,11.20
2023-04-18T02:27:02.766Z,10.90
2023-04-18T02:28:02.747Z,12.20
2023-04-18T02:29:02.747Z,9.20
2023-04-18T02:30:02.713Z,9.80
2023-04-18T02:31:02.724Z,10.60
2023-04-18T02:32:02.768Z,11.00
2023-04-18T02:33:02.700Z,10.30
2023-04-18T02:34:02.702Z,9.80
2023-04-18T02:35:02.683Z,9.30
2023-04-18T02:36:02.657Z,9.10
2023-04-18T02:37:02.676Z,9.10
2023-04-18T02:38:02.653Z,10.50
2023-04-18T02:39:02.661Z,9.10
2023-04-18T02:40:02.613Z,9.90
2023-04-18T02:41:02.661Z,10.30
2023-04-18T02:42:02.602Z,11.10
2023-04-18T02:43:02.619Z,10.20
2023-04-18T02:44:02.617Z,9.50
2023-04-18T02:45:02.630Z,9.70
2023-04-18T02:47:21.094Z,10.00
2023-04-18T02:48:21.115Z,9.60
2023-04-18T02:49:21.082Z,10.20
2023-04-18T02:50:22.164Z,10.10
2023-04-18T02:51:22.160Z,9.70
2023-04-18T02:52:22.125Z,10.00
2023-04-18T02:53:22.150Z,10.20
2023-04-18T02:54:22.131Z,9.30
2023-04-18T02:55:22.134Z,11.10
2023-04-18T02:56:22.112Z,11.00
2023-04-18T02:57:22.110Z,10.00
2023-04-18T02:58:22.096Z,10.60
2023-04-18T02:59:22.073Z,10.00
2023-04-18T03:00:22.114Z,10.50
2023-04-18T03:01:22.074Z,11.00
2023-04-18T03:02:22.140Z,11.20
2023-04-18T03:03:22.080Z,10.50
2023-04-18T03:04:22.033Z,10.90
2023-04-18T03:05:22.001Z,12.10
2023-04-18T03:06:22.033Z,11.00
2023-04-18T03:07:22.010Z,11.20
2023-04-18T03:08:22.007Z,10.00
2023-04-18T03:09:22.000Z,10.30
2023-04-18T03:10:21.937Z,10.70
2023-04-18T03:11:22.221Z,11.10
2023-04-18T03:12:21.965Z,11.40
2023-04-18T03:13:22.926Z,11.60
2023-04-18T03:14:21.916Z,10.00
2023-04-18T03:15:21.922Z,11.70
2023-04-18T03:16:22.002Z,11.20
2023-04-18T03:17:22.062Z,11.30
2023-04-18T03:18:21.913Z,10.30
2023-04-18T03:19:21.900Z,11.10
2023-04-18T03:20:21.890Z,10.60
2023-04-18T03:21:21.874Z,10.40
2023-04-18T03:22:21.862Z,11.30
2023-04-18T03:23:21.846Z,10.30
2023-04-18T03:24:21.830Z,11.20
2023-04-18T03:25:21.829Z,10.90
2023-04-18T03:26:21.814Z,10.00
2023-04-18T03:27:21.796Z,10.40
2023-04-18T03:28:21.817Z,9.90
2023-04-18T03:29:21.782Z,11.10
2023-04-18T03:30:21.751Z,10.20
2023-04-18T03:31:21.856Z,10.60
2023-04-18T03:32:21.750Z,11.20
2023-04-18T03:33:21.738Z,10.80
2023-04-18T03:34:21.735Z,11.20
2023-04-18T03:35:21.781Z,11.40
2023-04-18T03:36:21.706Z,12.20
2023-04-18T03:37:22.700Z,11.70
2023-04-18T03:38:21.715Z,12.20
2023-04-18T03:39:21.673Z,12.10
2023-04-18T03:40:21.683Z,11.50
2023-04-18T03:41:21.670Z,10.90
2023-04-18T03:42:21.666Z,12.40
2023-04-18T03:43:21.669Z,12.20
2023-04-18T03:44:21.665Z,11.40
2023-04-18T03:45:21.632Z,12.40
2023-04-18T03:46:21.688Z,12.40
2023-04-18T03:47:21.619Z,12.60
2023-04-18T03:48:21.612Z,11.80
2023-04-18T03:49:21.580Z,12.80
2023-04-18T03:50:21.555Z,12.90
2023-04-18T03:51:21.561Z,13.30
2023-04-18T03:52:21.560Z,13.00
2023-04-18T03:53:21.578Z,12.30
2023-04-18T03:54:21.557Z,13.90
2023-04-18T03:55:21.538Z,15.30
2023-04-18T03:56:21.530Z,13.50
2023-04-18T03:57:21.566Z,15.50
2023-04-18T03:58:23.173Z,15.20
2023-04-18T03:59:21.505Z,15.40
2023-04-18T04:00:21.496Z,14.90
2023-04-18T04:01:21.471Z,13.90
2023-04-18T04:02:21.623Z,14.60
2023-04-18T04:03:21.555Z,14.90
2023-04-18T04:04:21.537Z,16.90
2023-04-18T04:05:21.452Z,15.30
2023-04-18T04:06:21.433Z,18.50
2023-04-18T04:07:21.441Z,16.20
2023-04-18T04:08:21.415Z,15.90
2023-04-18T04:09:21.429Z,18.10
2023-04-18T04:10:21.402Z,17.30
2023-04-18T04:11:21.384Z,16.30
2023-04-18T04:12:21.409Z,16.40
2023-04-18T04:13:21.405Z,18.60
2023-04-18T04:14:21.400Z,18.90
2023-04-18T04:15:21.410Z,16.30
2023-04-18T04:16:21.398Z,18.10
2023-04-18T04:17:21.344Z,18.40
2023-04-18T04:18:21.327Z,16.30
2023-04-18T04:19:21.299Z,16.90
2023-04-18T04:20:21.575Z,16.80
2023-04-18T04:21:21.327Z,17.00
2023-04-18T04:22:21.298Z,16.40
2023-04-18T04:23:21.274Z,16.00
2023-04-18T04:24:21.279Z,16.20
2023-04-18T04:25:21.324Z,16.80
2023-04-18T04:26:22.247Z,17.60
2023-04-18T04:27:21.259Z,15.70
2023-04-18T04:28:21.204Z,16.70
2023-04-18T04:29:21.215Z,16.50
2023-04-18T04:30:21.249Z,17.60
2023-04-18T04:31:21.195Z,16.70
2023-04-18T04:32:21.239Z,17.00
2023-04-18T04:33:21.195Z,18.10
2023-04-18T04:34:21.152Z,16.10
2023-04-18T04:35:21.150Z,17.40
2023-04-18T04:36:21.161Z,15.70
2023-04-18T04:37:21.156Z,16.50
2023-04-18T04:38:21.110Z,16.10
2023-04-18T04:39:21.111Z,17.80
2023-04-18T04:40:21.126Z,15.40
2023-04-18T04:41:21.100Z,15.10
2023-04-18T04:42:21.073Z,16.00
2023-04-18T04:43:21.085Z,15.70
2023-04-18T04:44:21.053Z,15.70
2023-04-18T04:45:21.041Z,13.80
2023-04-18T04:46:21.077Z,14.70
2023-04-18T04:47:21.116Z,15.70
2023-04-18T04:48:21.087Z,16.30
2023-04-18T04:49:21.005Z,15.50
2023-04-18T04:50:21.026Z,17.40
2023-04-18T04:51:21.001Z,15.20
2023-04-18T04:52:21.026Z,14.90
2023-04-18T04:53:20.973Z,16.50
2023-04-18T04:54:20.960Z,15.10
2023-04-18T04:55:20.950Z,15.50
2023-04-18T04:56:20.974Z,16.70
2023-04-18T04:57:20.946Z,16.10
2023-04-18T04:58:20.925Z,13.50
2023-04-18T04:59:20.934Z,15.80
2023-04-18T05:00:20.941Z,13.60
2023-04-18T05:01:20.946Z,12.80
2023-04-18T05:02:20.981Z,13.40
2023-04-18T05:03:21.141Z,13.30
2023-04-18T05:04:21.055Z,13.50
2023-04-18T05:05:20.896Z,12.20
2023-04-18T05:06:20.882Z,14.70
2023-04-18T05:07:20.886Z,11.90
2023-04-18T05:08:20.827Z,14.00
2023-04-18T05:09:20.801Z,11.70
2023-04-18T05:10:20.811Z,13.10
2023-04-18T05:11:20.930Z,12.20
2023-04-18T05:12:20.822Z,13.70
2023-04-18T05:13:20.807Z,13.20
2023-04-18T05:14:20.755Z,10.20
2023-04-18T05:15:20.765Z,12.90
2023-04-18T05:16:20.777Z,10.90
2023-04-18T05:17:20.779Z,10.70
2023-04-18T05:18:20.740Z,12.20
2023-04-18T05:19:20.844Z,9.70
2023-04-18T05:20:20.716Z,12.20
2023-04-18T05:21:20.730Z,10.50
2023-04-18T05:22:20.716Z,11.30
2023-04-18T05:23:20.714Z,10.70
2023-04-18T05:24:20.674Z,12.30
2023-04-18T05:25:20.666Z,8.90
2023-04-18T05:26:20.655Z,10.80
2023-04-18T05:27:20.642Z,10.20
2023-04-18T05:28:20.713Z,10.60
2023-04-18T05:29:20.688Z,12.70
2023-04-18T05:30:20.617Z,12.30
2023-04-18T05:31:20.674Z,21.90
2023-04-18T05:32:20.593Z,15.80
2023-04-18T05:33:20.571Z,12.60
2023-04-18T05:34:20.579Z,12.30
2023-04-18T05:35:20.550Z,9.60
2023-04-18T05:36:20.609Z,11.30
2023-04-18T05:37:20.568Z,11.20
2023-04-18T05:38:20.547Z,9.90
2023-04-18T05:39:20.517Z,9.20
2023-04-18T05:40:20.560Z,11.40
2023-04-18T05:41:20.538Z,9.50
2023-04-18T05:42:20.527Z,9.80
2023-04-18T05:43:20.523Z,9.00
2023-04-18T05:44:20.632Z,9.30
2023-04-18T05:45:20.504Z,10.10
2023-04-18T05:46:20.507Z,9.60
2023-04-18T05:47:20.477Z,10.10
2023-04-18T05:48:20.472Z,8.80
2023-04-18T05:49:20.498Z,7.20
2023-04-18T05:50:20.453Z,8.50
2023-04-18T05:51:20.445Z,7.70
2023-04-18T05:52:20.427Z,7.50
2023-04-18T05:53:20.423Z,9.60
2023-04-18T05:54:20.396Z,9.00
2023-04-18T05:55:20.422Z,6.90
2023-04-18T05:56:20.402Z,7.10
2023-04-18T05:57:20.408Z,6.80
2023-04-18T05:58:20.362Z,7.30
2023-04-18T05:59:20.434Z,8.80
2023-04-18T06:00:20.353Z,7.10
2023-04-18T06:01:20.340Z,9.00
2023-04-18T06:02:20.429Z,8.00
2023-04-18T06:03:20.570Z,7.80
2023-04-18T06:04:20.851Z,8.10
2023-04-18T06:05:20.452Z,8.00
2023-04-18T06:06:20.279Z,8.70
2023-04-18T06:07:20.278Z,6.80
2023-04-18T06:08:20.265Z,7.40
2023-04-18T06:09:20.234Z,6.80
2023-04-18T06:10:20.212Z,7.20
2023-04-18T06:11:20.243Z,8.10
2023-04-18T06:12:20.230Z,7.10
2023-04-18T06:13:20.213Z,8.60
2023-04-18T06:14:20.206Z,8.80
2023-04-18T06:15:20.166Z,8.00
2023-04-18T06:16:20.212Z,8.10
2023-04-18T06:17:20.206Z,8.30
2023-04-18T06:18:20.143Z,7.30
2023-04-18T06:19:20.173Z,6.20
2023-04-18T06:20:20.101Z,9.30
2023-04-18T06:21:20.145Z,6.90
2023-04-18T06:22:20.118Z,6.70
2023-04-18T06:23:20.110Z,5.70
2023-04-18T06:24:20.096Z,6.10
2023-04-18T06:25:20.123Z,8.70
2023-04-18T06:26:20.060Z,7.50
2023-04-18T06:27:30.619Z,8.20
2023-04-18T06:28:21.084Z,5.90
2023-04-18T06:29:20.065Z,6.90
2023-04-18T06:30:20.057Z,6.50
2023-04-18T06:31:20.110Z,5.80
2023-04-18T06:32:20.025Z,7.20
2023-04-18T06:33:20.018Z,7.90
2023-04-18T06:34:20.014Z,6.20
2023-04-18T06:35:19.997Z,7.60
2023-04-18T06:36:20.049Z,6.30
2023-04-18T06:37:19.935Z,7.20
2023-04-18T06:38:19.965Z,8.20
2023-04-18T06:39:19.975Z,6.30
2023-04-18T06:40:19.950Z,6.10
2023-04-18T06:41:19.925Z,8.60
2023-04-18T06:42:22.202Z,7.50
2023-04-18T06:43:20.897Z,6.70
2023-04-18T06:44:19.894Z,7.40
2023-04-18T06:45:19.899Z,7.60
2023-04-18T06:46:19.942Z,7.60
2023-04-18T06:47:19.893Z,7.60
2023-04-18T06:48:19.858Z,7.70
2023-04-18T06:49:22.012Z,7.90
2023-04-18T06:50:20.852Z,8.20
2023-04-18T06:51:19.896Z,6.50
2023-04-18T06:52:19.844Z,7.70
2023-04-18T06:53:19.793Z,8.00
2023-04-18T06:54:19.782Z,8.10
2023-04-18T06:55:19.856Z,6.80
2023-04-18T06:56:19.806Z,8.40
2023-04-18T06:57:19.793Z,7.30
2023-04-18T06:58:19.722Z,7.50
2023-04-18T06:59:19.772Z,7.70
2023-04-18T07:00:19.745Z,8.20
2023-04-18T07:01:19.767Z,7.50
2023-04-18T07:02:19.808Z,8.00
2023-04-18T07:03:19.851Z,9.80
2023-04-18T07:04:20.059Z,8.40
2023-04-18T07:05:19.691Z,7.30
2023-04-18T07:06:19.696Z,8.30
2023-04-18T07:07:19.659Z,8.30
2023-04-18T07:08:19.707Z,8.40
2023-04-18T07:09:19.670Z,8.30
2023-04-18T07:10:19.682Z,9.10
2023-04-18T07:11:19.886Z,8.00
2023-04-18T07:12:19.632Z,8.60
2023-04-18T07:13:19.647Z,7.60
2023-04-18T07:14:19.596Z,8.50
2023-04-18T07:15:19.660Z,10.10
2023-04-18T07:16:19.609Z,7.10
2023-04-18T07:17:19.598Z,7.70
2023-04-18T07:18:26.772Z,6.90
2023-04-18T07:19:21.594Z,8.10
2023-04-18T07:20:19.610Z,9.30
2023-04-18T07:21:19.535Z,8.00
2023-04-18T07:22:19.544Z,7.60
2023-04-18T07:23:19.515Z,8.20
2023-04-18T07:24:19.513Z,8.10
2023-04-18T07:25:19.528Z,8.00
2023-04-18T07:26:19.482Z,9.40
2023-04-18T07:27:19.483Z,7.90
2023-04-18T07:28:19.454Z,8.50
2023-04-18T07:29:19.488Z,6.80
2023-04-18T07:30:19.464Z,7.80
2023-04-18T07:31:19.546Z,8.10
2023-04-18T07:32:19.556Z,9.70
2023-04-18T07:33:19.441Z,9.10
2023-04-18T07:34:19.398Z,7.70
2023-04-18T07:35:19.386Z,8.10
2023-04-18T07:36:19.370Z,9.50
2023-04-18T07:37:19.417Z,8.10
2023-04-18T07:38:19.435Z,9.20
2023-04-18T07:39:19.372Z,9.10
2023-04-18T07:40:19.367Z,7.40
2023-04-18T07:41:19.357Z,9.60
2023-04-18T07:42:19.357Z,7.30
2023-04-18T07:43:20.832Z,8.60
2023-04-18T07:44:20.354Z,7.30
2023-04-18T07:45:19.319Z,8.90
2023-04-18T07:46:19.306Z,7.90
2023-04-18T07:47:22.408Z,10.20
2023-04-18T07:48:20.269Z,10.80
2023-04-18T07:49:19.266Z,10.20
2023-04-18T07:50:19.278Z,10.60
2023-04-18T07:51:19.235Z,8.50
2023-04-18T07:52:19.206Z,8.30
2023-04-18T07:53:19.243Z,8.90
2023-04-18T07:54:20.223Z,8.20
2023-04-18T07:55:19.215Z,9.40
2023-04-18T07:56:19.169Z,10.90
2023-04-18T07:57:19.196Z,8.30
2023-04-18T07:58:19.192Z,9.60
2023-04-18T07:59:19.198Z,9.70
2023-04-18T08:00:19.155Z,10.30
2023-04-18T08:01:19.153Z,8.90
2023-04-18T08:02:19.277Z,8.10
2023-04-18T08:03:19.492Z,7.60
2023-04-18T08:04:19.216Z,9.20
2023-04-18T08:05:19.226Z,9.40
2023-04-18T08:06:19.099Z,10.40
2023-04-18T08:07:19.072Z,9.30
2023-04-18T08:08:19.094Z,9.70
2023-04-18T08:09:19.108Z,10.10
2023-04-18T08:10:19.066Z,10.20
2023-04-18T08:11:19.028Z,11.40
2023-04-18T08:12:19.105Z,9.80
2023-04-18T08:13:19.085Z,11.50
2023-04-18T08:14:19.018Z,12.70
2023-04-18T08:15:19.033Z,11.30
2023-04-18T08:16:19.020Z,12.60
2023-04-18T08:17:18.987Z,13.10
2023-04-18T08:18:19.007Z,13.00
2023-04-18T08:19:18.970Z,13.40
2023-04-18T08:20:18.955Z,12.70
2023-04-18T08:21:18.968Z,12.40
2023-04-18T08:22:18.935Z,14.20
2023-04-18T08:23:18.973Z,14.90
2023-04-18T08:24:18.900Z,13.90
2023-04-18T08:25:18.898Z,15.60
2023-04-18T08:26:18.894Z,13.00
2023-04-18T08:27:18.880Z,14.40
2023-04-18T08:28:18.880Z,15.70
2023-04-18T08:29:18.859Z,14.80
2023-04-18T08:30:18.878Z,15.70
2023-04-18T08:31:18.966Z,16.00
2023-04-18T08:32:18.846Z,17.00
2023-04-18T08:33:18.825Z,15.20
2023-04-18T08:34:18.860Z,15.40
2023-04-18T08:35:18.797Z,15.80
2023-04-18T08:36:18.818Z,15.90
2023-04-18T08:37:18.792Z,14.30
2023-04-18T08:38:18.765Z,19.00
2023-04-18T08:39:18.766Z,16.40
2023-04-18T08:40:18.731Z,14.30
2023-04-18T08:41:18.726Z,15.30
2023-04-18T08:42:18.725Z,15.40
2023-04-18T08:43:18.697Z,17.40
2023-04-18T08:44:18.739Z,16.80
2023-04-18T08:45:18.746Z,15.50
2023-04-18T08:46:18.731Z,16.40
2023-04-18T08:47:50.690Z,15.40
2023-04-18T08:48:18.662Z,15.90
2023-04-18T08:49:18.659Z,17.20
2023-04-18T08:50:18.642Z,16.60
2023-04-18T08:51:18.693Z,14.70
2023-04-18T08:52:18.611Z,17.00
2023-04-18T08:53:18.652Z,16.80
2023-04-18T08:54:19.647Z,16.70
2023-04-18T08:55:18.603Z,17.70
2023-04-18T08:56:18.632Z,18.00
2023-04-18T08:57:18.616Z,17.30
2023-04-18T08:58:18.592Z,17.20
2023-04-18T08:59:18.598Z,17.60
2023-04-18T09:00:18.566Z,15.70
2023-04-18T09:01:18.578Z,20.20
2023-04-18T09:02:18.578Z,17.90
2023-04-18T09:03:18.872Z,18.50
2023-04-18T09:04:18.564Z,18.00
2023-04-18T09:05:18.479Z,16.50
2023-04-18T09:06:18.543Z,17.30
2023-04-18T09:07:18.460Z,18.50
2023-04-18T09:08:18.518Z,18.30
2023-04-18T09:09:18.456Z,17.70
2023-04-18T09:10:18.501Z,18.20
2023-04-18T09:11:18.422Z,19.90
2023-04-18T09:12:18.485Z,18.40
2023-04-18T09:13:18.436Z,20.40
2023-04-18T09:14:18.418Z,21.90
2023-04-18T09:15:18.409Z,20.00
2023-04-18T09:16:18.426Z,21.90
2023-04-18T09:17:18.417Z,23.70
2023-04-18T09:18:18.397Z,21.20
2023-04-18T09:19:18.890Z,21.50
2023-04-18T09:20:18.357Z,21.40
2023-04-18T09:21:18.391Z,24.10
2023-04-18T09:22:18.324Z,25.70
2023-04-18T09:23:18.336Z,23.40
2023-04-18T09:24:18.329Z,22.30
2023-04-18T09:25:18.313Z,22.20
2023-04-18T09:26:18.331Z,20.60
2023-04-18T09:27:18.286Z,22.70
2023-04-18T09:28:18.300Z,22.10
2023-04-18T09:29:18.295Z,23.30
2023-04-18T09:30:18.264Z,24.00
2023-04-18T09:31:18.331Z,20.60
2023-04-18T09:32:18.247Z,23.60
2023-04-18T09:33:18.265Z,24.60
2023-04-18T09:34:18.211Z,25.50
2023-04-18T09:35:18.291Z,24.70
2023-04-18T09:36:18.202Z,26.60
2023-04-18T09:37:18.216Z,25.20
2023-04-18T09:38:18.204Z,26.10
2023-04-18T09:39:18.198Z,23.40
2023-04-18T09:40:18.146Z,20.40
2023-04-18T09:41:20.673Z,23.60
2023-04-18T09:42:19.145Z,23.00
2023-04-18T09:43:18.147Z,22.60
2023-04-18T09:44:18.481Z,22.10
2023-04-18T09:45:18.127Z,22.20
2023-04-18T09:46:18.189Z,23.70
2023-04-18T09:47:18.101Z,20.80
2023-04-18T09:48:18.081Z,22.50
2023-04-18T09:49:18.208Z,22.40
2023-04-18T09:50:18.089Z,21.50
2023-04-18T09:51:18.067Z,22.00
2023-04-18T09:52:18.033Z,22.30
2023-04-18T09:53:20.123Z,21.90
2023-04-18T09:54:19.037Z,20.90
2023-04-18T09:55:18.075Z,23.10
2023-04-18T09:56:18.001Z,22.20
2023-04-18T09:57:18.048Z,22.80
2023-04-18T09:58:17.989Z,20.40
2023-04-18T09:59:20.471Z,23.90
2023-04-18T10:00:17.972Z,21.40
2023-04-18T10:01:17.975Z,20.20
2023-04-18T10:02:17.968Z,19.70
2023-04-18T10:03:18.046Z,19.30
2023-04-18T10:04:18.106Z,20.20
2023-04-18T10:05:20.287Z,20.90
2023-04-18T10:06:17.926Z,20.20
2023-04-18T10:07:18.089Z,18.90
2023-04-18T10:08:17.915Z,18.90
2023-04-18T10:09:17.894Z,20.20
2023-04-18T10:10:17.862Z,20.30
2023-04-18T10:11:18.664Z,19.40
2023-04-18T10:12:17.883Z,19.10
2023-04-18T10:13:17.889Z,18.20
2023-04-18T10:14:18.139Z,17.90
2023-04-18T10:15:17.861Z,18.80
2023-04-18T10:16:17.867Z,18.50
2023-04-18T10:17:17.790Z,18.60
2023-04-18T10:18:17.799Z,19.40
2023-04-18T10:19:17.791Z,20.30
2023-04-18T10:20:17.791Z,20.20
2023-04-18T10:21:17.749Z,20.80
2023-04-18T10:22:17.773Z,19.30
2023-04-18T10:23:17.747Z,17.70
2023-04-18T10:24:17.707Z,17.70
2023-04-18T10:25:17.691Z,23.70
2023-04-18T10:26:17.707Z,24.40
2023-04-18T10:27:17.737Z,20.20
2023-04-18T10:28:17.681Z,20.20
2023-04-18T10:29:17.661Z,20.00
2023-04-18T10:30:17.653Z,20.50
2023-04-18T10:31:17.716Z,20.80
2023-04-18T10:32:17.665Z,20.20
2023-04-18T10:33:27.937Z,20.00
2023-04-18T10:34:19.827Z,20.10
2023-04-18T10:35:18.619Z,21.00
2023-04-18T10:36:17.630Z,19.90
2023-04-18T10:37:17.654Z,20.20
2023-04-18T10:38:18.597Z,20.40
2023-04-18T10:39:17.609Z,20.30
2023-04-18T10:40:17.652Z,20.50
2023-04-18T10:41:17.577Z,20.00
2023-04-18T10:42:17.570Z,19.50
2023-04-18T10:43:17.555Z,19.60
2023-04-18T10:44:17.635Z,20.80
2023-04-18T10:45:17.564Z,21.20
2023-04-18T10:46:30.912Z,21.80
2023-04-18T10:47:17.504Z,18.70
2023-04-18T10:48:17.692Z,18.30
2023-04-18T10:49:17.517Z,20.00
2023-04-18T10:50:17.496Z,19.10
2023-04-18T10:51:17.547Z,20.30
2023-04-18T10:52:17.481Z,19.10
2023-04-18T10:53:17.441Z,19.90
2023-04-18T10:54:17.444Z,19.50
2023-04-18T10:55:17.856Z,21.10
2023-04-18T10:56:17.430Z,21.60
2023-04-18T10:57:17.404Z,21.70
2023-04-18T10:58:17.429Z,19.80
2023-04-18T10:59:17.401Z,20.10
2023-04-18T11:00:17.443Z,19.80
2023-04-18T11:01:17.404Z,19.50
2023-04-18T11:02:17.420Z,19.10
2023-04-18T11:03:17.453Z,19.90
2023-04-18T11:04:17.630Z,18.50
2023-04-18T11:05:17.341Z,19.50
2023-04-18T11:06:17.316Z,18.90
2023-04-18T11:07:17.335Z,19.70
2023-04-18T11:08:17.320Z,15.60
2023-04-18T11:09:17.323Z,17.70
2023-04-18T11:10:17.303Z,15.40
2023-04-18T11:11:17.309Z,17.30
2023-04-18T11:12:17.301Z,17.50
2023-04-18T11:13:17.273Z,17.20
2023-04-18T11:14:17.487Z,16.20
2023-04-18T11:15:17.273Z,16.10
2023-04-18T11:16:17.278Z,17.60
2023-04-18T11:17:17.230Z,16.30
2023-04-18T11:18:17.201Z,16.20
2023-04-18T11:19:17.208Z,15.60
2023-04-18T11:20:17.221Z,15.50
2023-04-18T11:21:17.216Z,15.80
2023-04-18T11:22:17.190Z,15.60
2023-04-18T11:23:17.234Z,16.30
2023-04-18T11:24:17.151Z,14.20
2023-04-18T11:25:17.153Z,14.50
2023-04-18T11:26:17.111Z,14.60
2023-04-18T11:27:17.140Z,14.80
2023-04-18T11:28:17.155Z,14.90
2023-04-18T11:29:17.132Z,13.00
2023-04-18T11:30:17.130Z,15.00
2023-04-18T11:31:17.107Z,14.40
2023-04-18T11:32:17.131Z,15.20
2023-04-18T11:33:17.110Z,14.80
2023-04-18T11:34:17.066Z,13.90
2023-04-18T11:35:17.053Z,13.90
2023-04-18T11:36:17.064Z,12.90
2023-04-18T11:37:17.034Z,12.80
2023-04-18T11:38:17.016Z,13.00
2023-04-18T11:39:17.009Z,13.10
2023-04-18T11:40:17.029Z,13.40
2023-04-18T11:41:17.017Z,12.80
2023-04-18T11:42:16.982Z,13.70
2023-04-18T11:43:17.113Z,13.70
2023-04-18T11:44:16.992Z,13.30
2023-04-18T11:45:16.935Z,12.60
2023-04-18T11:46:17.033Z,13.00
2023-04-18T11:47:16.942Z,11.60
2023-04-18T11:48:16.928Z,11.90
2023-04-18T11:49:16.946Z,12.40
2023-04-18T11:50:16.962Z,11.80
2023-04-18T11:51:16.912Z,12.10
2023-04-18T11:52:16.887Z,12.10
2023-04-18T11:53:16.877Z,13.10
2023-04-18T11:54:16.855Z,10.00
2023-04-18T11:55:16.844Z,11.50
2023-04-18T11:56:16.936Z,11.80
2023-04-18T11:57:16.862Z,12.10
2023-04-18T11:58:16.832Z,11.70
2023-04-18T11:59:16.898Z,10.30
2023-04-18T12:00:16.829Z,11.70
2023-04-18T12:01:16.801Z,11.90
2023-04-18T12:02:17.270Z,11.70
2023-04-18T12:03:17.964Z,11.20
2023-04-18T12:04:17.181Z,11.10
2023-04-18T12:05:17.249Z,11.80
2023-04-18T12:06:16.793Z,10.60
2023-04-18T12:07:16.803Z,11.50
2023-04-18T12:08:16.756Z,12.00
2023-04-18T12:09:16.724Z,11.00
2023-04-18T12:10:16.708Z,10.90
2023-04-18T12:11:16.746Z,10.00
2023-04-18T12:12:16.692Z,12.80
2023-04-18T12:13:16.671Z,11.20
2023-04-18T12:14:16.723Z,10.70
2023-04-18T12:15:16.678Z,11.10
2023-04-18T12:16:16.693Z,11.20
2023-04-18T12:17:16.658Z,11.10
2023-04-18T12:18:16.625Z,11.80
2023-04-18T12:19:16.611Z,11.10
2023-04-18T12:20:16.643Z,11.30
2023-04-18T12:21:16.596Z,11.40
2023-04-18T12:22:16.570Z,11.80
2023-04-18T12:23:16.665Z,10.90
2023-04-18T12:24:16.792Z,10.60
2023-04-18T12:25:16.553Z,11.10
2023-04-18T12:26:16.549Z,11.20
2023-04-18T12:27:16.558Z,11.00
2023-04-18T12:28:16.511Z,10.70
2023-04-18T12:29:16.493Z,10.60
2023-04-18T12:30:16.548Z,10.80
2023-04-18T12:31:16.737Z,10.60
2023-04-18T12:32:16.500Z,9.80
2023-04-18T12:33:16.466Z,10.50
2023-04-18T12:34:16.457Z,9.80
2023-04-18T12:35:16.471Z,10.70
2023-04-18T12:36:16.468Z,12.00
2023-04-18T12:37:16.442Z,10.10
2023-04-18T12:38:16.457Z,10.40
2023-04-18T12:39:16.386Z,10.10
2023-04-18T12:40:16.421Z,10.40
2023-04-18T12:41:16.493Z,10.20
2023-04-18T12:42:16.404Z,10.60
2023-04-18T12:43:16.387Z,10.10
2023-04-18T12:44:16.417Z,10.60
2023-04-18T12:45:16.383Z,9.70
2023-04-18T12:46:16.350Z,9.50
2023-04-18T12:47:16.341Z,10.40
2023-04-18T12:48:16.368Z,10.30
2023-04-18T12:49:16.389Z,9.30
2023-04-18T12:50:16.412Z,10.70
2023-04-18T12:51:16.303Z,10.50
2023-04-18T12:52:16.350Z,9.90
2023-04-18T12:53:16.298Z,10.00
2023-04-18T12:54:16.465Z,9.10
2023-04-18T12:55:16.292Z,10.30
2023-04-18T12:56:16.261Z,10.10
2023-04-18T12:57:16.262Z,10.50
2023-04-18T12:58:16.314Z,10.70
2023-04-18T12:59:16.328Z,10.60